TGW284 WSSS-WIKT
Flight info
| Callsign | TGW284 |
|---|---|
| Flight time | 0h 57m |
| Altitude | 35000 |
| Route | WSSS DCT SURGA M635 GUKNO GUKN1B WIKT |
| Aircraft | A320/M-SDE2E3GHIJ1J3J4J5LM1ORWXYZ/LB1D1 |
Departure
| Time | 2026-05-07 02:55 |
|---|---|
| Airport | Singapore Changi Airport (WSSS) |
Arrival
| Time | 2026-05-07 03:52 |
|---|---|
| Airport | H A S Hanandjoeddin International Airport (WIKT) |
| Time | Latitude | Longitude | Altitude | Speed | Heading |
|---|---|---|---|---|---|
| 2026-05-07 02:45 | 1.36313 | 103.99095 | 27 ft | 0 kts | 22° |
| 2026-05-07 02:52 | 1.36322 | 103.99099 | 25 ft | 6 kts | 22° |
| 2026-05-07 02:52 | 1.36403 | 103.99132 | 25 ft | 17 kts | 22° |
| 2026-05-07 02:52 | 1.36488 | 103.99221 | 25 ft | 19 kts | 53° |
| 2026-05-07 02:52 | 1.36564 | 103.99319 | 25 ft | 13 kts | 53° |
| 2026-05-07 02:53 | 1.36573 | 103.99399 | 25 ft | 13 kts | 111° |
| 2026-05-07 02:53 | 1.36547 | 103.99459 | 25 ft | 15 kts | 114° |
| 2026-05-07 02:53 | 1.36502 | 103.99562 | 25 ft | 18 kts | 114° |
| 2026-05-07 02:53 | 1.36438 | 103.99710 | 25 ft | 20 kts | 112° |
| 2026-05-07 02:54 | 1.36400 | 103.99800 | 25 ft | 22 kts | 113° |
| 2026-05-07 02:54 | 1.36281 | 103.99873 | 29 ft | 23 kts | 174° |
| 2026-05-07 02:54 | 1.35986 | 103.99811 | 27 ft | 75 kts | 202° |
| 2026-05-07 02:54 | 1.35315 | 103.99528 | 30 ft | 131 kts | 202° |
| 2026-05-07 02:55 | 1.34331 | 103.99112 | 50 ft | 172 kts | 202° |
| 2026-05-07 02:55 | 1.33217 | 103.98666 | 690 ft | 173 kts | 200° |
| 2026-05-07 02:55 | 1.32102 | 103.98202 | 1377 ft | 175 kts | 201° |
| 2026-05-07 02:55 | 1.30949 | 103.97712 | 1692 ft | 193 kts | 202° |
| 2026-05-07 02:56 | 1.29632 | 103.97149 | 1892 ft | 218 kts | 202° |
| 2026-05-07 02:56 | 1.28164 | 103.96524 | 2213 ft | 243 kts | 202° |
| 2026-05-07 02:56 | 1.26542 | 103.95830 | 2677 ft | 262 kts | 202° |
| 2026-05-07 02:56 | 1.24835 | 103.95102 | 3484 ft | 269 kts | 202° |
| 2026-05-07 02:57 | 1.23038 | 103.94576 | 4337 ft | 271 kts | 183° |
| 2026-05-07 02:57 | 1.21161 | 103.94798 | 5181 ft | 275 kts | 165° |
| 2026-05-07 02:57 | 1.19300 | 103.95263 | 6044 ft | 278 kts | 165° |
| 2026-05-07 02:57 | 1.17414 | 103.95738 | 6880 ft | 281 kts | 166° |
| 2026-05-07 02:58 | 1.15502 | 103.96217 | 7674 ft | 285 kts | 166° |
| 2026-05-07 02:58 | 1.13588 | 103.96693 | 8414 ft | 289 kts | 166° |
| 2026-05-07 02:58 | 1.11629 | 103.97215 | 9140 ft | 293 kts | 160° |
| 2026-05-07 02:58 | 1.09800 | 103.98142 | 9843 ft | 297 kts | 144° |
| 2026-05-07 02:59 | 1.08134 | 103.99416 | 10336 ft | 310 kts | 141° |
| 2026-05-07 02:59 | 1.06365 | 104.00790 | 10482 ft | 333 kts | 141° |
| 2026-05-07 02:59 | 1.04505 | 104.02273 | 10768 ft | 348 kts | 137° |
| 2026-05-07 02:59 | 1.02885 | 104.04091 | 11331 ft | 353 kts | 124° |
| 2026-05-07 03:00 | 1.01674 | 104.06228 | 11953 ft | 355 kts | 113° |
| 2026-05-07 03:00 | 1.00716 | 104.08509 | 12603 ft | 357 kts | 112° |
| 2026-05-07 03:00 | 0.99750 | 104.10801 | 13224 ft | 360 kts | 112° |
| 2026-05-07 03:00 | 0.98768 | 104.13116 | 13815 ft | 363 kts | 112° |
| 2026-05-07 03:01 | 0.97777 | 104.15455 | 14412 ft | 366 kts | 112° |
| 2026-05-07 03:01 | 0.96785 | 104.17803 | 14981 ft | 369 kts | 112° |
| 2026-05-07 03:01 | 0.95783 | 104.20179 | 15531 ft | 372 kts | 112° |
| 2026-05-07 03:01 | 0.94741 | 104.22555 | 16057 ft | 376 kts | 116° |
| 2026-05-07 03:02 | 0.93395 | 104.24803 | 16579 ft | 379 kts | 121° |
| 2026-05-07 03:02 | 0.91996 | 104.27041 | 17103 ft | 381 kts | 121° |
| 2026-05-07 03:02 | 0.90603 | 104.29277 | 17599 ft | 384 kts | 121° |
| 2026-05-07 03:02 | 0.89184 | 104.31557 | 18108 ft | 387 kts | 121° |
| 2026-05-07 03:03 | 0.87753 | 104.33852 | 18609 ft | 390 kts | 121° |
| 2026-05-07 03:03 | 0.86320 | 104.36157 | 19100 ft | 393 kts | 121° |
| 2026-05-07 03:03 | 0.84868 | 104.38493 | 19586 ft | 396 kts | 121° |
| 2026-05-07 03:03 | 0.83411 | 104.40837 | 20058 ft | 399 kts | 121° |
| 2026-05-07 03:04 | 0.81937 | 104.43192 | 20508 ft | 401 kts | 122° |
| 2026-05-07 03:04 | 0.80382 | 104.45519 | 20966 ft | 404 kts | 123° |
| 2026-05-07 03:04 | 0.78755 | 104.47819 | 21399 ft | 406 kts | 125° |
| 2026-05-07 03:04 | 0.77083 | 104.50116 | 21812 ft | 409 kts | 125° |
| 2026-05-07 03:05 | 0.75395 | 104.52417 | 22195 ft | 412 kts | 126° |
| 2026-05-07 03:05 | 0.73526 | 104.54600 | 22570 ft | 415 kts | 135° |
| 2026-05-07 03:05 | 0.71277 | 104.56418 | 22932 ft | 419 kts | 146° |
| 2026-05-07 03:05 | 0.68690 | 104.57798 | 23295 ft | 423 kts | 156° |
| 2026-05-07 03:06 | 0.65917 | 104.58704 | 23637 ft | 426 kts | 162° |
| 2026-05-07 03:06 | 0.63067 | 104.59541 | 23973 ft | 428 kts | 162° |
| 2026-05-07 03:06 | 0.60195 | 104.60389 | 24314 ft | 430 kts | 162° |
| 2026-05-07 03:06 | 0.57315 | 104.61243 | 24664 ft | 432 kts | 162° |
| 2026-05-07 03:07 | 0.54428 | 104.62105 | 24985 ft | 435 kts | 162° |
| 2026-05-07 03:07 | 0.51512 | 104.62976 | 25304 ft | 437 kts | 162° |
| 2026-05-07 03:07 | 0.48630 | 104.63837 | 25607 ft | 439 kts | 162° |
| 2026-05-07 03:07 | 0.45692 | 104.64709 | 25925 ft | 440 kts | 162° |
| 2026-05-07 03:08 | 0.42744 | 104.65583 | 26224 ft | 442 kts | 162° |
| 2026-05-07 03:08 | 0.39784 | 104.66462 | 26518 ft | 444 kts | 162° |
| 2026-05-07 03:08 | 0.36812 | 104.67343 | 26806 ft | 446 kts | 162° |
| 2026-05-07 03:08 | 0.33823 | 104.68226 | 27081 ft | 448 kts | 162° |
| 2026-05-07 03:09 | 0.30826 | 104.69111 | 27352 ft | 450 kts | 162° |
| 2026-05-07 03:09 | 0.27818 | 104.70001 | 27635 ft | 452 kts | 162° |
| 2026-05-07 03:09 | 0.24789 | 104.70896 | 27914 ft | 454 kts | 162° |
| 2026-05-07 03:09 | 0.21754 | 104.71796 | 28189 ft | 456 kts | 161° |
| 2026-05-07 03:10 | 0.18828 | 104.72902 | 28447 ft | 455 kts | 152° |
| 2026-05-07 03:10 | 0.16115 | 104.74523 | 28712 ft | 455 kts | 142° |
| 2026-05-07 03:10 | 0.13738 | 104.76614 | 28960 ft | 455 kts | 131° |
| 2026-05-07 03:10 | 0.11777 | 104.79085 | 29204 ft | 455 kts | 122° |
| 2026-05-07 03:11 | 0.10184 | 104.81822 | 29467 ft | 456 kts | 118° |
| 2026-05-07 03:11 | 0.08626 | 104.84582 | 29735 ft | 457 kts | 118° |
| 2026-05-07 03:11 | 0.07058 | 104.87346 | 30083 ft | 457 kts | 118° |
| 2026-05-07 03:11 | 0.05488 | 104.90100 | 30481 ft | 456 kts | 119° |
| 2026-05-07 03:12 | 0.03916 | 104.92846 | 30843 ft | 455 kts | 119° |
| 2026-05-07 03:12 | 0.02344 | 104.95591 | 31224 ft | 454 kts | 119° |
| 2026-05-07 03:12 | 0.00777 | 104.98333 | 31588 ft | 454 kts | 118° |
| 2026-05-07 03:12 | -0.00540 | 105.01198 | 31938 ft | 453 kts | 111° |
| 2026-05-07 03:13 | -0.01713 | 105.04133 | 32289 ft | 453 kts | 111° |
| 2026-05-07 03:13 | -0.02873 | 105.07009 | 32649 ft | 453 kts | 111° |
| 2026-05-07 03:13 | -0.04055 | 105.09927 | 33010 ft | 453 kts | 112° |
| 2026-05-07 03:13 | -0.05239 | 105.12838 | 33383 ft | 452 kts | 112° |
| 2026-05-07 03:14 | -0.06421 | 105.15749 | 33747 ft | 452 kts | 112° |
| 2026-05-07 03:14 | -0.07600 | 105.18657 | 34119 ft | 451 kts | 112° |
| 2026-05-07 03:14 | -0.09941 | 105.24459 | 34796 ft | 450 kts | 111° |
| 2026-05-07 03:15 | -0.11112 | 105.27365 | 34889 ft | 452 kts | 111° |
| 2026-05-07 03:15 | -0.13476 | 105.33203 | 34896 ft | 453 kts | 111° |
| 2026-05-07 03:16 | -0.15849 | 105.39048 | 34897 ft | 454 kts | 111° |
| 2026-05-07 03:16 | -0.18210 | 105.44886 | 34896 ft | 453 kts | 111° |
| 2026-05-07 03:17 | -0.20575 | 105.50729 | 34897 ft | 453 kts | 111° |
| 2026-05-07 03:17 | -0.22920 | 105.56544 | 34897 ft | 452 kts | 111° |
| 2026-05-07 03:18 | -0.25271 | 105.62375 | 34894 ft | 452 kts | 111° |
| 2026-05-07 03:18 | -0.27632 | 105.68209 | 34897 ft | 453 kts | 111° |
| 2026-05-07 03:19 | -0.29993 | 105.74058 | 34900 ft | 453 kts | 111° |
| 2026-05-07 03:19 | -0.32362 | 105.79905 | 34902 ft | 454 kts | 111° |
| 2026-05-07 03:20 | -0.34711 | 105.85721 | 34905 ft | 454 kts | 111° |
| 2026-05-07 03:20 | -0.37074 | 105.91566 | 34905 ft | 454 kts | 111° |
| 2026-05-07 03:21 | -0.39442 | 105.97419 | 34905 ft | 453 kts | 111° |
| 2026-05-07 03:21 | -0.41812 | 106.03266 | 34908 ft | 453 kts | 111° |
| 2026-05-07 03:22 | -0.44170 | 106.09108 | 34909 ft | 453 kts | 111° |
| 2026-05-07 03:22 | -0.46514 | 106.14902 | 34908 ft | 453 kts | 111° |
| 2026-05-07 03:23 | -0.48875 | 106.20736 | 34907 ft | 453 kts | 111° |
| 2026-05-07 03:23 | -0.51231 | 106.26573 | 34906 ft | 453 kts | 111° |
| 2026-05-07 03:24 | -0.53596 | 106.32415 | 34906 ft | 453 kts | 111° |
| 2026-05-07 03:24 | -0.55938 | 106.38215 | 34903 ft | 452 kts | 111° |
| 2026-05-07 03:25 | -0.58288 | 106.44046 | 34904 ft | 452 kts | 111° |
| 2026-05-07 03:25 | -0.60660 | 106.49866 | 34903 ft | 452 kts | 114° |
| 2026-05-07 03:26 | -0.64144 | 106.55092 | 34901 ft | 453 kts | 131° |
| 2026-05-07 03:26 | -0.68345 | 106.59791 | 34897 ft | 454 kts | 130° |
| 2026-05-07 03:27 | -0.72539 | 106.64512 | 34895 ft | 454 kts | 130° |
| 2026-05-07 03:27 | -0.76718 | 106.69240 | 34891 ft | 454 kts | 130° |
| 2026-05-07 03:28 | -0.80907 | 106.73968 | 34893 ft | 454 kts | 130° |
| 2026-05-07 03:28 | -0.83000 | 106.76332 | 34779 ft | 455 kts | 130° |
| 2026-05-07 03:28 | -0.85097 | 106.78697 | 34531 ft | 454 kts | 130° |
| 2026-05-07 03:28 | -0.87192 | 106.81059 | 34280 ft | 455 kts | 130° |
| 2026-05-07 03:29 | -0.89292 | 106.83426 | 34025 ft | 455 kts | 130° |
| 2026-05-07 03:29 | -0.91363 | 106.85758 | 33783 ft | 455 kts | 130° |
| 2026-05-07 03:29 | -0.93465 | 106.88123 | 33542 ft | 456 kts | 130° |
| 2026-05-07 03:29 | -0.95576 | 106.90503 | 33283 ft | 456 kts | 130° |
| 2026-05-07 03:30 | -0.97686 | 106.92883 | 33032 ft | 457 kts | 130° |
| 2026-05-07 03:30 | -0.99795 | 106.95262 | 32788 ft | 457 kts | 130° |
| 2026-05-07 03:30 | -1.01918 | 106.97651 | 32533 ft | 458 kts | 130° |
| 2026-05-07 03:30 | -1.04027 | 107.00029 | 32284 ft | 458 kts | 130° |
| 2026-05-07 03:31 | -1.06141 | 107.02415 | 32034 ft | 459 kts | 130° |
| 2026-05-07 03:31 | -1.08231 | 107.04776 | 31788 ft | 460 kts | 130° |
| 2026-05-07 03:31 | -1.10352 | 107.07171 | 31539 ft | 460 kts | 130° |
| 2026-05-07 03:31 | -1.12471 | 107.09560 | 31289 ft | 460 kts | 130° |
| 2026-05-07 03:32 | -1.14605 | 107.11965 | 31033 ft | 460 kts | 130° |
| 2026-05-07 03:32 | -1.16727 | 107.14357 | 30783 ft | 459 kts | 130° |
| 2026-05-07 03:32 | -1.18842 | 107.16739 | 30536 ft | 457 kts | 130° |
| 2026-05-07 03:32 | -1.20954 | 107.19117 | 30282 ft | 456 kts | 130° |
| 2026-05-07 03:33 | -1.23054 | 107.21485 | 30032 ft | 454 kts | 130° |
| 2026-05-07 03:33 | -1.25120 | 107.23817 | 29787 ft | 452 kts | 130° |
| 2026-05-07 03:33 | -1.27202 | 107.26162 | 29513 ft | 450 kts | 130° |
| 2026-05-07 03:33 | -1.29268 | 107.28491 | 28930 ft | 445 kts | 130° |
| 2026-05-07 03:34 | -1.31319 | 107.30805 | 28321 ft | 442 kts | 130° |
| 2026-05-07 03:34 | -1.33344 | 107.33094 | 27715 ft | 438 kts | 130° |
| 2026-05-07 03:34 | -1.35484 | 107.35243 | 27107 ft | 435 kts | 139° |
| 2026-05-07 03:34 | -1.37964 | 107.36969 | 26495 ft | 433 kts | 149° |
| 2026-05-07 03:35 | -1.40698 | 107.38216 | 25891 ft | 432 kts | 159° |
| 2026-05-07 03:35 | -1.43555 | 107.39134 | 25289 ft | 429 kts | 160° |
| 2026-05-07 03:35 | -1.46395 | 107.40040 | 24704 ft | 425 kts | 160° |
| 2026-05-07 03:35 | -1.49190 | 107.40938 | 24127 ft | 436 kts | 160° |
| 2026-05-07 03:36 | -1.52193 | 107.41910 | 23512 ft | 470 kts | 160° |
| 2026-05-07 03:36 | -1.55382 | 107.42945 | 22849 ft | 483 kts | 160° |
| 2026-05-07 03:36 | -1.58502 | 107.43952 | 22343 ft | 455 kts | 160° |
| 2026-05-07 03:36 | -1.61424 | 107.44887 | 21727 ft | 431 kts | 160° |
| 2026-05-07 03:37 | -1.64230 | 107.45788 | 21051 ft | 413 kts | 160° |
| 2026-05-07 03:37 | -1.66916 | 107.46656 | 20686 ft | 402 kts | 160° |
| 2026-05-07 03:37 | -1.69535 | 107.47503 | 20167 ft | 398 kts | 160° |
| 2026-05-07 03:37 | -1.72165 | 107.48352 | 19640 ft | 395 kts | 161° |
| 2026-05-07 03:38 | -1.74765 | 107.49191 | 19104 ft | 392 kts | 160° |
| 2026-05-07 03:38 | -1.77355 | 107.50026 | 18565 ft | 389 kts | 161° |
| 2026-05-07 03:38 | -1.79924 | 107.50852 | 17999 ft | 386 kts | 161° |
| 2026-05-07 03:38 | -1.82465 | 107.51670 | 17458 ft | 383 kts | 161° |
| 2026-05-07 03:39 | -1.84993 | 107.52484 | 16895 ft | 380 kts | 161° |
| 2026-05-07 03:39 | -1.87500 | 107.53293 | 16336 ft | 377 kts | 161° |
| 2026-05-07 03:39 | -1.89989 | 107.54097 | 15772 ft | 375 kts | 161° |
| 2026-05-07 03:39 | -1.92464 | 107.54895 | 15210 ft | 372 kts | 161° |
| 2026-05-07 03:40 | -1.94096 | 107.55420 | 14838 ft | 371 kts | 161° |
| 2026-05-07 03:40 | -1.96550 | 107.56208 | 14286 ft | 368 kts | 161° |
| 2026-05-07 03:40 | -1.98982 | 107.56993 | 13715 ft | 366 kts | 161° |
| 2026-05-07 03:40 | -2.02178 | 107.58024 | 12982 ft | 363 kts | 161° |
| 2026-05-07 03:41 | -2.04570 | 107.58795 | 12427 ft | 360 kts | 161° |
| 2026-05-07 03:41 | -2.06948 | 107.59563 | 11870 ft | 357 kts | 161° |
| 2026-05-07 03:41 | -2.08542 | 107.60078 | 11501 ft | 356 kts | 161° |
| 2026-05-07 03:41 | -2.10890 | 107.60837 | 10955 ft | 354 kts | 161° |
| 2026-05-07 03:42 | -2.13186 | 107.61580 | 10524 ft | 349 kts | 161° |
| 2026-05-07 03:42 | -2.15452 | 107.62311 | 10372 ft | 335 kts | 161° |
| 2026-05-07 03:42 | -2.17637 | 107.63012 | 10245 ft | 323 kts | 161° |
| 2026-05-07 03:42 | -2.19748 | 107.63687 | 10123 ft | 312 kts | 161° |
| 2026-05-07 03:43 | -2.21783 | 107.64341 | 9946 ft | 304 kts | 161° |
| 2026-05-07 03:43 | -2.23781 | 107.64986 | 9703 ft | 300 kts | 161° |
| 2026-05-07 03:43 | -2.25771 | 107.65629 | 9308 ft | 300 kts | 161° |
| 2026-05-07 03:43 | -2.27763 | 107.66272 | 8906 ft | 301 kts | 161° |
| 2026-05-07 03:44 | -2.29744 | 107.66910 | 8566 ft | 298 kts | 161° |
| 2026-05-07 03:44 | -2.31699 | 107.67539 | 8245 ft | 296 kts | 161° |
| 2026-05-07 03:44 | -2.33657 | 107.68170 | 7925 ft | 294 kts | 161° |
| 2026-05-07 03:44 | -2.35600 | 107.68797 | 7583 ft | 293 kts | 160° |
| 2026-05-07 03:45 | -2.37536 | 107.69423 | 7256 ft | 291 kts | 160° |
| 2026-05-07 03:45 | -2.39454 | 107.70043 | 6925 ft | 289 kts | 160° |
| 2026-05-07 03:45 | -2.41362 | 107.70659 | 6485 ft | 290 kts | 160° |
| 2026-05-07 03:45 | -2.43322 | 107.71291 | 5845 ft | 294 kts | 160° |
| 2026-05-07 03:46 | -2.45191 | 107.71892 | 5732 ft | 272 kts | 160° |
| 2026-05-07 03:46 | -2.46922 | 107.72449 | 5606 ft | 252 kts | 160° |
| 2026-05-07 03:46 | -2.48532 | 107.72968 | 5480 ft | 234 kts | 160° |
| 2026-05-07 03:46 | -2.50026 | 107.73449 | 5372 ft | 218 kts | 159° |
| 2026-05-07 03:47 | -2.51447 | 107.73875 | 5258 ft | 210 kts | 167° |
| 2026-05-07 03:47 | -2.52886 | 107.74013 | 5058 ft | 206 kts | 173° |
| 2026-05-07 03:47 | -2.54297 | 107.74113 | 4803 ft | 206 kts | 173° |
| 2026-05-07 03:47 | -2.55698 | 107.74214 | 4658 ft | 196 kts | 173° |
| 2026-05-07 03:48 | -2.57043 | 107.74308 | 4372 ft | 194 kts | 173° |
| 2026-05-07 03:48 | -2.58376 | 107.74395 | 3940 ft | 193 kts | 172° |
| 2026-05-07 03:48 | -2.59716 | 107.74483 | 3576 ft | 191 kts | 173° |
| 2026-05-07 03:48 | -2.61034 | 107.74568 | 3239 ft | 186 kts | 173° |
| 2026-05-07 03:49 | -2.62330 | 107.74652 | 2647 ft | 186 kts | 172° |
| 2026-05-07 03:49 | -2.63602 | 107.74734 | 2106 ft | 183 kts | 173° |
| 2026-05-07 03:49 | -2.64885 | 107.74818 | 1836 ft | 185 kts | 172° |
| 2026-05-07 03:49 | -2.66129 | 107.74899 | 1573 ft | 172 kts | 172° |
| 2026-05-07 03:50 | -2.67267 | 107.74972 | 1362 ft | 158 kts | 172° |
| 2026-05-07 03:50 | -2.68345 | 107.75044 | 1153 ft | 152 kts | 172° |
| 2026-05-07 03:50 | -2.69377 | 107.75111 | 957 ft | 146 kts | 172° |
| 2026-05-07 03:50 | -2.70384 | 107.75178 | 775 ft | 143 kts | 172° |
| 2026-05-07 03:51 | -2.71377 | 107.75245 | 588 ft | 143 kts | 173° |
| 2026-05-07 03:51 | -2.72368 | 107.75310 | 392 ft | 143 kts | 173° |
| 2026-05-07 03:51 | -2.73359 | 107.75385 | 213 ft | 143 kts | 173° |
| 2026-05-07 03:51 | -2.74263 | 107.75445 | 169 ft | 107 kts | 178° |
| 2026-05-07 03:52 | -2.74836 | 107.75481 | 164 ft | 58 kts | 176° |
| 2026-05-07 03:52 | -2.75122 | 107.75497 | 162 ft | 38 kts | 178° |
| 2026-05-07 03:52 | -2.75304 | 107.75511 | 160 ft | 8 kts | 175° |
| 2026-05-07 03:52 | -2.75332 | 107.75469 | 161 ft | 8 kts | 258° |
| 2026-05-07 03:53 | -2.75334 | 107.75440 | 163 ft | 1 kts | 269° |
| 2026-05-07 03:53 | -2.75334 | 107.75439 | 164 ft | 1 kts | 269° |
| 2026-05-07 03:53 | -2.75359 | 107.75425 | 164 ft | 6 kts | 187° |
| 2026-05-07 03:53 | -2.75386 | 107.75425 | 164 ft | 1 kts | 188° |
| 2026-05-07 03:54 | -2.75385 | 107.75417 | 164 ft | 2 kts | 272° |
| 2026-05-07 03:54 | -2.75384 | 107.75406 | 165 ft | 0 kts | 271° |
| 2026-05-07 03:56 | -2.75385 | 107.75406 | 165 ft | 0 kts | 271° |
| 2026-05-07 03:57 | -2.75384 | 107.75406 | 165 ft | 0 kts | 271° |